Time;durP1;ratioP1;P1;durP2;ratioP2;P2;SDS_P1;SDS_P2;PMS_P1;PMS_P2;Temp;Humidity;BMP_temperature;BMP_pressure;BME280_temperature;BME280_humidity;BME280_pressure;Samples;Min_cycle;Max_cycle;Signal;HPM_P1;HPM_P2
2023/10/03 00:01:40;;;;;;;15.03;8.38;;;16.80;99.90;;;;;;940307;146;27479;-75
2023/10/03 00:04:09;;;;;;;13.03;8.00;;;16.80;99.90;;;;;;925926;149;27456;-75
2023/10/03 00:06:33;;;;;;;13.93;8.98;;;16.70;99.90;;;;;;926516;149;27374;-75
2023/10/03 00:08:59;;;;;;;12.95;8.35;;;16.70;99.90;;;;;;925378;149;27453;-76
2023/10/03 00:11:27;;;;;;;14.10;8.70;;;16.70;99.90;;;;;;926191;149;27343;-75
2023/10/03 00:13:53;;;;;;;13.20;8.58;;;16.70;99.90;;;;;;926927;149;27378;-75
2023/10/03 00:16:20;;;;;;;13.80;8.63;;;16.70;99.90;;;;;;941322;148;27399;-75
2023/10/03 00:18:46;;;;;;;14.53;8.28;;;16.70;99.90;;;;;;924616;149;27416;-75
2023/10/03 00:21:12;;;;;;;13.62;8.28;;;16.70;99.90;;;;;;942896;146;29144;-75
2023/10/03 00:23:39;;;;;;;13.28;8.93;;;16.70;99.90;;;;;;925644;149;27328;-75
2023/10/03 00:26:15;;;;;;;12.00;8.28;;;16.70;99.90;;;;;;940846;148;28615;-75
2023/10/03 00:28:33;;;;;;;12.90;8.08;;;16.70;99.90;;;;;;924137;149;27453;-75
2023/10/03 00:30:59;;;;;;;11.70;8.50;;;16.60;99.90;;;;;;938385;148;27341;-75
2023/10/03 00:33:26;;;;;;;12.13;7.85;;;16.60;99.90;;;;;;937462;149;27427;-75
2023/10/03 00:35:55;;;;;;;13.85;8.35;;;16.60;99.90;;;;;;925594;150;27350;-76
2023/10/03 00:38:22;;;;;;;15.25;9.38;;;16.60;99.90;;;;;;941578;146;27387;-75
2023/10/03 00:40:48;;;;;;;12.70;7.80;;;16.60;99.90;;;;;;926046;149;27310;-76
2023/10/03 00:43:15;;;;;;;12.53;8.33;;;16.50;99.90;;;;;;941883;146;27320;-76
2023/10/03 00:45:42;;;;;;;15.48;9.38;;;16.50;99.90;;;;;;926649;149;27363;-75
2023/10/03 00:48:08;;;;;;;12.95;8.55;;;16.50;99.90;;;;;;929039;149;27293;-75
2023/10/03 00:50:34;;;;;;;12.18;8.55;;;16.40;99.90;;;;;;962827;145;27354;-75
2023/10/03 00:53:05;;;;;;;13.18;8.20;;;16.40;99.90;;;;;;944273;148;27380;-75
2023/10/03 00:55:27;;;;;;;12.70;8.40;;;16.40;99.90;;;;;;944420;147;27327;-75
2023/10/03 01:00:43;;;;;;;11.95;8.18;;;16.30;99.90;;;;;;961770;145;27483;-75
2023/10/03 01:03:30;;;;;;;11.75;7.83;;;16.30;99.90;;;;;;963210;145;27374;-75
2023/10/03 01:05:59;;;;;;;11.25;8.10;;;16.20;99.90;;;;;;961819;145;27291;-77
2023/10/03 01:08:23;;;;;;;13.20;8.58;;;16.20;99.90;;;;;;945009;148;27379;-77
2023/10/03 01:10:49;;;;;;;13.55;8.43;;;16.20;99.90;;;;;;942601;148;27430;-77
2023/10/03 01:13:16;;;;;;;13.18;8.20;;;16.10;99.90;;;;;;942544;148;27356;-75
2023/10/03 01:15:43;;;;;;;14.93;9.53;;;16.10;99.90;;;;;;961768;145;27337;-75
2023/10/03 01:18:14;;;;;;;14.15;7.87;;;16.10;99.90;;;;;;962838;147;27402;-75
2023/10/03 01:20:41;;;;;;;15.50;8.58;;;16.10;99.90;;;;;;944914;148;27378;-75
2023/10/03 01:23:11;;;;;;;13.88;8.70;;;16.00;99.90;;;;;;941536;148;27499;-75
2023/10/03 01:25:43;;;;;;;15.40;9.70;;;16.00;99.90;;;;;;961880;145;27305;-75
2023/10/03 01:28:12;;;;;;;13.75;9.05;;;16.00;99.90;;;;;;945912;147;27424;-75
2023/10/03 01:30:40;;;;;;;13.75;8.93;;;16.00;99.90;;;;;;942192;148;27354;-75
2023/10/03 01:33:06;;;;;;;14.98;10.20;;;16.00;99.90;;;;;;962688;146;27335;-75
2023/10/03 01:35:32;;;;;;;12.82;7.92;;;15.90;99.90;;;;;;962978;145;27341;-75
2023/10/03 01:37:59;;;;;;;12.98;7.97;;;16.00;99.90;;;;;;943569;148;27325;-75
2023/10/03 01:40:26;;;;;;;15.53;8.45;;;15.90;99.90;;;;;;945539;147;27512;-75
2023/10/03 01:42:52;;;;;;;13.90;8.53;;;15.90;99.90;;;;;;943770;148;27372;-76
2023/10/03 01:45:24;;;;;;;13.25;8.78;;;15.90;99.90;;;;;;944659;147;27427;-75
2023/10/03 01:47:51;;;;;;;13.40;8.73;;;15.90;99.90;;;;;;942806;148;27385;-75
2023/10/03 01:50:18;;;;;;;12.47;8.23;;;15.90;99.90;;;;;;941754;148;27406;-75
2023/10/03 01:52:46;;;;;;;14.50;8.70;;;15.80;99.90;;;;;;961541;145;27345;-75
2023/10/03 01:55:14;;;;;;;12.60;8.45;;;15.80;99.90;;;;;;943970;148;27438;-75
2023/10/03 01:57:40;;;;;;;11.93;8.28;;;15.80;99.90;;;;;;943007;148;27402;-75
2023/10/03 02:00:20;;;;;;;14.83;8.85;;;15.80;99.90;;;;;;962058;145;27233;-75
2023/10/03 02:02:33;;;;;;;13.95;8.73;;;15.80;99.90;;;;;;943195;147;27428;-75
2023/10/03 02:05:00;;;;;;;14.90;9.00;;;15.70;99.90;;;;;;944542;147;27440;-75
2023/10/03 02:07:27;;;;;;;13.13;8.45;;;15.70;99.90;;;;;;962519;145;27444;-75
2023/10/03 02:09:53;;;;;;;13.55;9.03;;;15.70;99.90;;;;;;961690;145;27865;-76
2023/10/03 02:12:21;;;;;;;14.28;9.18;;;15.70;99.90;;;;;;959029;148;27435;-75
2023/10/03 02:14:49;;;;;;;14.70;9.25;;;15.70;99.90;;;;;;956804;145;27424;-75
2023/10/03 02:17:13;;;;;;;13.65;8.95;;;15.60;99.90;;;;;;956771;146;27440;-75
2023/10/03 02:19:40;;;;;;;13.13;7.90;;;15.60;99.90;;;;;;945604;147;27722;-75
2023/10/03 02:22:06;;;;;;;12.60;8.03;;;15.60;99.90;;;;;;962714;145;27347;-75
2023/10/03 02:24:33;;;;;;;16.20;9.05;;;15.60;99.90;;;;;;944900;147;27752;-75
2023/10/03 02:27:01;;;;;;;13.95;8.88;;;15.60;99.90;;;;;;960969;145;27385;-75
2023/10/03 02:29:26;;;;;;;15.25;9.45;;;15.60;99.90;;;;;;957131;147;27681;-75
2023/10/03 02:31:53;;;;;;;13.38;9.13;;;15.60;99.90;;;;;;957338;145;27328;-75
2023/10/03 02:34:19;;;;;;;12.10;7.65;;;15.50;99.90;;;;;;959277;145;27409;-75
2023/10/03 02:36:46;;;;;;;13.88;8.65;;;15.50;99.90;;;;;;958261;145;27731;-75
2023/10/03 02:39:13;;;;;;;16.25;9.38;;;15.50;99.90;;;;;;959412;148;27362;-75
2023/10/03 02:41:39;;;;;;;12.37;7.83;;;15.50;99.90;;;;;;957693;145;27433;-75
2023/10/03 02:44:07;;;;;;;15.75;9.88;;;15.50;99.90;;;;;;958455;145;27451;-75
2023/10/03 02:46:33;;;;;;;17.42;9.08;;;15.50;99.90;;;;;;956558;145;27439;-76
2023/10/03 02:48:58;;;;;;;13.48;8.85;;;15.50;99.90;;;;;;959101;148;27426;-75
2023/10/03 02:51:25;;;;;;;13.90;9.08;;;15.50;99.90;;;;;;955731;146;27408;-75
2023/10/03 02:53:52;;;;;;;15.48;9.48;;;15.40;99.90;;;;;;953357;147;27424;-76
2023/10/03 02:56:18;;;;;;;12.85;8.58;;;15.40;99.90;;;;;;955233;147;27375;-75
2023/10/03 02:58:45;;;;;;;13.48;8.35;;;15.40;99.90;;;;;;957312;148;27409;-75
2023/10/03 03:01:11;;;;;;;15.10;9.53;;;15.40;99.90;;;;;;954692;148;27346;-75
2023/10/03 03:03:38;;;;;;;14.45;9.10;;;15.40;99.90;;;;;;953907;146;27814;-75
2023/10/03 03:06:09;;;;;;;17.60;9.58;;;15.40;99.90;;;;;;955667;147;27312;-75
2023/10/03 03:08:31;;;;;;;15.98;9.33;;;15.40;99.90;;;;;;954759;146;27400;-75
2023/10/03 03:10:58;;;;;;;13.83;9.20;;;15.40;99.90;;;;;;954507;148;27422;-76
2023/10/03 03:13:25;;;;;;;14.70;9.40;;;15.40;99.90;;;;;;955542;146;27379;-75
2023/10/03 03:15:59;;;;;;;12.00;8.45;;;15.40;99.90;;;;;;956877;147;27352;-75
2023/10/03 03:18:20;;;;;;;14.53;8.30;;;15.50;99.90;;;;;;952589;148;27427;-75
2023/10/03 03:20:50;;;;;;;14.50;8.98;;;15.40;99.90;;;;;;946054;148;27412;-75
2023/10/03 03:23:14;;;;;;;13.17;8.07;;;15.50;99.90;;;;;;946713;148;27264;-76
2023/10/03 03:25:42;;;;;;;15.68;9.43;;;15.50;99.90;;;;;;946606;148;27378;-75
2023/10/03 03:28:13;;;;;;;13.28;8.40;;;15.50;99.90;;;;;;942524;148;27439;-79
2023/10/03 03:33:00;;;;;;;14.80;8.90;;;15.50;99.90;;;;;;961186;145;27277;-79
2023/10/03 03:35:26;;;;;;;15.83;8.93;;;15.50;99.90;;;;;;946956;148;27489;-77
2023/10/03 03:37:57;;;;;;;13.55;8.30;;;15.50;99.90;;;;;;961751;145;27455;-76
2023/10/03 03:40:45;;;;;;;17.75;10.03;;;15.50;99.90;;;;;;958468;145;27460;-78
2023/10/03 03:42:46;;;;;;;14.60;8.93;;;15.60;99.90;;;;;;952600;145;27338;-76
2023/10/03 03:45:13;;;;;;;12.70;8.50;;;15.60;99.90;;;;;;945753;148;27359;-78
2023/10/03 03:47:39;;;;;;;15.63;9.78;;;15.60;99.90;;;;;;941424;148;27401;-78
2023/10/03 03:50:10;;;;;;;14.73;9.10;;;15.60;99.90;;;;;;947286;148;27481;-78
2023/10/03 03:52:34;;;;;;;14.00;8.90;;;15.60;99.90;;;;;;941178;146;27320;-77
2023/10/03 03:55:03;;;;;;;14.05;9.15;;;15.60;99.90;;;;;;943651;146;27403;-78
2023/10/03 03:57:27;;;;;;;14.68;8.68;;;15.70;99.90;;;;;;925158;151;27407;-75
2023/10/03 03:59:52;;;;;;;15.43;9.60;;;15.70;99.90;;;;;;924732;149;27437;-78
2023/10/03 04:02:19;;;;;;;12.85;8.73;;;15.70;99.90;;;;;;941981;147;27315;-77
2023/10/03 04:04:45;;;;;;;17.17;9.55;;;15.70;99.90;;;;;;925791;149;27360;-78
2023/10/03 04:07:12;;;;;;;14.90;9.18;;;15.70;99.90;;;;;;926280;149;27335;-79
2023/10/03 04:09:38;;;;;;;16.65;9.58;;;15.70;99.90;;;;;;942439;146;27486;-77
2023/10/03 04:12:05;;;;;;;12.93;8.38;;;15.70;99.90;;;;;;932691;149;27448;-77
2023/10/03 04:14:32;;;;;;;16.87;9.90;;;15.80;99.90;;;;;;940287;149;27377;-77
2023/10/03 04:16:58;;;;;;;14.95;9.05;;;15.80;99.90;;;;;;926024;149;27443;-78
2023/10/03 04:19:25;;;;;;;13.60;9.30;;;15.80;99.90;;;;;;941053;147;27316;-78
2023/10/03 04:21:51;;;;;;;17.27;10.45;;;15.80;99.90;;;;;;925903;149;27366;-76
2023/10/03 04:24:18;;;;;;;15.40;9.43;;;15.80;99.90;;;;;;941250;146;27328;-78
2023/10/03 04:26:45;;;;;;;14.20;9.13;;;15.80;99.90;;;;;;923858;149;27322;-78
2023/10/03 04:29:13;;;;;;;18.62;10.48;;;15.80;99.90;;;;;;937933;146;27301;-77
2023/10/03 04:31:38;;;;;;;16.07;9.40;;;15.80;99.90;;;;;;924516;149;27460;-78
2023/10/03 04:34:07;;;;;;;13.48;9.33;;;15.80;99.90;;;;;;939626;146;27307;-75
2023/10/03 04:36:32;;;;;;;13.80;10.03;;;15.90;99.90;;;;;;939625;151;27379;-78
2023/10/03 04:38:58;;;;;;;15.23;9.73;;;15.90;99.90;;;;;;940105;148;27414;-78
2023/10/03 04:41:24;;;;;;;15.75;10.43;;;15.90;99.90;;;;;;928153;149;27356;-79
2023/10/03 04:43:51;;;;;;;16.07;9.75;;;15.90;99.90;;;;;;922198;149;27302;-78
2023/10/03 04:46:17;;;;;;;17.87;10.55;;;15.90;99.90;;;;;;938452;148;27537;-78
2023/10/03 04:48:44;;;;;;;12.93;9.25;;;15.90;99.90;;;;;;938511;148;27393;-78
2023/10/03 04:51:11;;;;;;;14.38;9.40;;;15.90;99.90;;;;;;940333;148;27364;-77
2023/10/03 04:53:37;;;;;;;14.23;9.00;;;15.90;99.90;;;;;;921869;150;27386;-78
2023/10/03 04:56:04;;;;;;;17.15;10.05;;;15.90;99.90;;;;;;925054;150;27451;-78
2023/10/03 04:58:30;;;;;;;17.25;9.55;;;16.00;99.90;;;;;;940222;148;27328;-77
2023/10/03 05:00:57;;;;;;;16.35;10.10;;;16.00;99.90;;;;;;923042;149;27359;-77
2023/10/03 05:03:25;;;;;;;17.25;9.60;;;16.00;99.90;;;;;;940408;146;27368;-78
2023/10/03 05:05:52;;;;;;;16.32;9.25;;;16.10;99.90;;;;;;923794;149;27324;-75
2023/10/03 05:08:18;;;;;;;15.78;8.85;;;16.00;99.90;;;;;;941817;146;27502;-78
2023/10/03 05:10:43;;;;;;;16.77;10.53;;;16.10;99.90;;;;;;939997;146;27373;-78
2023/10/03 05:13:10;;;;;;;14.95;9.45;;;16.10;99.90;;;;;;941295;148;27479;-76
2023/10/03 05:15:36;;;;;;;16.95;10.23;;;16.20;99.90;;;;;;942871;146;27288;-78
2023/10/03 05:18:03;;;;;;;14.25;9.95;;;16.20;99.90;;;;;;928992;149;27365;-76
2023/10/03 05:20:37;;;;;;;16.37;9.68;;;16.20;99.90;;;;;;928793;151;27384;-76
2023/10/03 05:23:05;;;;;;;14.03;9.83;;;16.20;99.90;;;;;;942832;148;27493;-78
2023/10/03 05:25:29;;;;;;;13.98;9.25;;;16.20;99.90;;;;;;938419;148;27407;-79
2023/10/03 05:27:55;;;;;;;18.12;10.68;;;16.20;99.90;;;;;;941953;148;27665;-78
2023/10/03 05:30:25;;;;;;;13.83;9.60;;;16.30;99.90;;;;;;941115;149;27333;-77
2023/10/03 05:32:48;;;;;;;14.00;9.20;;;16.30;99.90;;;;;;941237;148;27382;-77
2023/10/03 05:35:15;;;;;;;14.73;9.95;;;16.30;99.90;;;;;;942361;148;27271;-78
2023/10/03 05:37:42;;;;;;;15.25;10.13;;;16.30;99.90;;;;;;928922;150;27392;-75
2023/10/03 05:40:20;;;;;;;17.57;10.32;;;16.30;99.90;;;;;;943739;146;27435;-78
2023/10/03 05:42:47;;;;;;;16.25;10.28;;;16.30;99.90;;;;;;941312;146;27879;-78
2023/10/03 05:45:13;;;;;;;15.10;9.53;;;16.30;99.90;;;;;;941129;146;27483;-78
2023/10/03 05:47:45;;;;;;;19.32;10.05;;;16.40;99.90;;;;;;926792;149;27366;-74
2023/10/03 05:50:20;;;;;;;15.32;9.80;;;16.40;99.90;;;;;;943550;148;27386;-74
2023/10/03 05:52:44;;;;;;;16.77;10.60;;;16.40;99.90;;;;;;928450;149;27394;-73
2023/10/03 05:55:11;;;;;;;15.48;10.20;;;16.40;99.90;;;;;;944454;148;27355;-72
2023/10/03 05:57:39;;;;;;;16.62;10.65;;;16.50;99.90;;;;;;943290;147;27462;-74
2023/10/03 06:00:04;;;;;;;15.90;9.55;;;16.50;99.90;;;;;;927220;149;27425;-75
2023/10/03 06:02:32;;;;;;;13.30;8.80;;;16.60;99.90;;;;;;933307;151;27380;-76
2023/10/03 06:04:58;;;;;;;15.88;9.60;;;16.60;99.90;;;;;;941849;146;27352;-74
2023/10/03 06:07:24;;;;;;;17.05;9.98;;;16.70;99.90;;;;;;928234;149;27376;-76
2023/10/03 06:09:52;;;;;;;15.90;10.60;;;16.70;99.90;;;;;;944805;146;27467;-74
2023/10/03 06:12:18;;;;;;;17.05;10.80;;;16.90;99.90;;;;;;943701;146;27422;-74
2023/10/03 06:14:43;;;;;;;15.50;9.80;;;17.00;99.90;;;;;;931603;149;27325;-76
2023/10/03 06:17:12;;;;;;;14.05;9.65;;;17.10;99.90;;;;;;943159;146;27388;-74
2023/10/03 06:19:37;;;;;;;15.60;9.88;;;17.40;99.90;;;;;;927393;149;28005;-81
2023/10/03 06:22:05;;;;;;;14.47;9.48;;;17.70;99.90;;;;;;928467;149;27392;-74
2023/10/03 06:24:31;;;;;;;14.83;9.08;;;18.10;99.90;;;;;;944377;146;27779;-76
2023/10/03 06:26:56;;;;;;;14.35;9.45;;;18.60;99.90;;;;;;926529;153;27372;-74
2023/10/03 06:29:23;;;;;;;15.78;8.93;;;19.10;99.90;;;;;;944301;146;27344;-74
2023/10/03 06:31:51;;;;;;;13.40;9.30;;;19.70;99.90;;;;;;941904;146;27423;-75
2023/10/03 06:34:16;;;;;;;15.00;9.55;;;20.30;99.90;;;;;;926749;149;27367;-75
2023/10/03 06:36:43;;;;;;;12.35;8.85;;;20.90;99.90;;;;;;948427;147;27252;-75
2023/10/03 06:39:09;;;;;;;11.80;8.73;;;21.50;99.90;;;;;;940695;148;27354;-77
2023/10/03 06:41:38;;;;;;;11.83;8.98;;;21.90;99.90;;;;;;940791;148;27518;-76
2023/10/03 06:44:02;;;;;;;13.25;9.23;;;22.30;98.80;;;;;;941418;148;27313;-74
2023/10/03 06:46:29;;;;;;;11.43;8.80;;;22.50;96.40;;;;;;933097;148;27989;-74
2023/10/03 06:48:56;;;;;;;12.78;7.97;;;22.60;94.80;;;;;;926856;149;27491;-75
2023/10/03 06:51:22;;;;;;;13.43;9.10;;;22.60;93.80;;;;;;943892;146;27271;-76
2023/10/03 06:53:49;;;;;;;13.83;8.38;;;22.70;93.00;;;;;;928588;149;27483;-75
2023/10/03 06:56:15;;;;;;;12.90;8.75;;;22.70;92.80;;;;;;928523;149;27326;-75
2023/10/03 06:58:42;;;;;;;11.28;7.60;;;22.80;93.50;;;;;;928694;149;27464;-79
2023/10/03 07:01:12;;;;;;;13.08;8.50;;;22.90;94.30;;;;;;934181;150;27366;-79
2023/10/03 07:03:41;;;;;;;12.47;8.50;;;23.00;94.30;;;;;;944150;146;27413;-79
2023/10/03 07:06:08;;;;;;;12.43;8.78;;;23.30;95.00;;;;;;928331;149;27483;-79
2023/10/03 07:08:34;;;;;;;12.70;8.15;;;23.60;95.40;;;;;;942159;146;27437;-77
2023/10/03 07:11:01;;;;;;;11.97;8.13;;;24.00;95.30;;;;;;928812;149;27494;-79
2023/10/03 07:13:27;;;;;;;10.88;7.45;;;24.40;94.10;;;;;;927973;149;27312;-79
2023/10/03 07:15:58;;;;;;;10.78;8.15;;;24.80;92.60;;;;;;925956;149;27351;-79
2023/10/03 07:18:24;;;;;;;11.73;8.00;;;25.20;91.20;;;;;;945718;146;27253;-79
2023/10/03 07:20:50;;;;;;;10.63;8.13;;;25.50;88.40;;;;;;927136;149;27343;-79
2023/10/03 07:23:19;;;;;;;10.88;7.30;;;25.80;84.20;;;;;;927233;150;27497;-76
2023/10/03 07:25:43;;;;;;;10.13;7.60;;;26.00;81.80;;;;;;943381;146;27398;-79
2023/10/03 07:28:10;;;;;;;8.98;7.12;;;26.00;79.70;;;;;;926735;149;27460;-76
2023/10/03 07:30:37;;;;;;;12.80;7.47;;;26.10;78.30;;;;;;949740;146;27417;-79
2023/10/03 07:33:05;;;;;;;11.12;7.75;;;26.00;77.10;;;;;;941566;148;27450;-79
2023/10/03 07:35:32;;;;;;;9.93;7.00;;;26.00;76.30;;;;;;942861;148;27348;-79
2023/10/03 07:37:57;;;;;;;9.05;7.30;;;25.90;75.90;;;;;;940884;148;27322;-80
2023/10/03 07:40:27;;;;;;;11.43;8.05;;;25.80;75.80;;;;;;943345;148;27354;-79
2023/10/03 07:42:49;;;;;;;9.90;7.53;;;25.80;75.70;;;;;;937136;149;27382;-78
2023/10/03 07:45:17;;;;;;;10.05;7.67;;;25.70;75.40;;;;;;944511;146;27361;-79
2023/10/03 07:47:44;;;;;;;9.08;6.72;;;25.60;75.60;;;;;;945628;146;27333;-79
2023/10/03 07:50:11;;;;;;;10.05;6.90;;;25.50;75.80;;;;;;930173;149;27353;-79
2023/10/03 07:52:36;;;;;;;9.20;6.65;;;25.50;76.00;;;;;;925458;149;27355;-80
2023/10/03 07:55:03;;;;;;;7.58;5.62;;;25.50;76.00;;;;;;960737;145;28027;-77
2023/10/03 07:57:30;;;;;;;7.35;5.70;;;25.50;76.30;;;;;;951067;147;27376;-80
2023/10/03 07:59:56;;;;;;;5.22;4.58;;;25.50;76.10;;;;;;949658;147;27377;-78
2023/10/03 08:02:32;;;;;;;6.25;4.47;;;25.40;75.90;;;;;;964278;145;27335;-80
2023/10/03 08:05:00;;;;;;;5.45;4.50;;;25.50;75.70;;;;;;942408;148;27499;-79
2023/10/03 08:07:24;;;;;;;4.97;4.40;;;25.50;75.20;;;;;;964373;145;27396;-77
2023/10/03 08:09:50;;;;;;;6.33;4.65;;;25.50;74.80;;;;;;946891;148;27310;-77
2023/10/03 08:12:25;;;;;;;5.03;4.25;;;25.50;74.40;;;;;;944301;148;27371;-77
2023/10/03 08:14:52;;;;;;;6.37;4.20;;;25.50;74.20;;;;;;964782;145;27338;-77
2023/10/03 08:17:16;;;;;;;5.33;4.37;;;25.50;73.90;;;;;;946685;148;27339;-77
2023/10/03 08:19:45;;;;;;;4.90;4.28;;;25.60;73.30;;;;;;943679;148;27291;-77
2023/10/03 08:22:12;;;;;;;6.25;4.28;;;25.60;72.80;;;;;;965113;145;27687;-77
2023/10/03 08:24:36;;;;;;;5.67;4.70;;;25.60;72.70;;;;;;945231;148;27381;-77
2023/10/03 08:27:03;;;;;;;5.22;4.20;;;25.70;73.50;;;;;;943729;148;27377;-77
2023/10/03 08:29:29;;;;;;;4.78;4.35;;;25.70;72.50;;;;;;966089;145;27340;-77
2023/10/03 08:31:58;;;;;;;8.53;4.25;;;25.70;72.30;;;;;;944894;148;28394;-77
2023/10/03 08:34:28;;;;;;;6.12;4.60;;;25.70;72.00;;;;;;948800;147;27336;-77
2023/10/03 08:36:54;;;;;;;4.60;4.10;;;25.80;71.80;;;;;;962506;145;27328;-77
2023/10/03 08:39:24;;;;;;;5.97;4.28;;;25.80;71.80;;;;;;945632;148;27290;-77
2023/10/03 08:42:12;;;;;;;5.53;4.62;;;25.90;71.50;;;;;;965037;145;27432;-77
2023/10/03 08:44:52;;;;;;;5.35;4.15;;;25.90;71.20;;;;;;964967;145;28510;-76
2023/10/03 08:47:16;;;;;;;6.42;4.35;;;26.00;71.00;;;;;;944824;148;27348;-76
2023/10/03 08:49:43;;;;;;;6.78;4.45;;;26.00;70.70;;;;;;948340;147;27307;-76
2023/10/03 08:52:12;;;;;;;5.53;4.40;;;26.00;70.40;;;;;;946155;147;27377;-76
2023/10/03 08:54:39;;;;;;;6.67;4.33;;;26.10;70.20;;;;;;954997;145;27405;-76
2023/10/03 08:57:09;;;;;;;6.70;4.45;;;26.10;69.90;;;;;;932784;149;27369;-76
2023/10/03 08:59:32;;;;;;;5.67;4.20;;;26.10;70.20;;;;;;927323;149;27314;-77
2023/10/03 09:01:59;;;;;;;5.60;4.20;;;26.10;70.20;;;;;;932820;149;27365;-77
2023/10/03 09:04:25;;;;;;;6.35;4.15;;;26.20;70.10;;;;;;943130;146;27642;-77
2023/10/03 09:06:52;;;;;;;7.20;4.37;;;26.20;69.80;;;;;;926640;149;27321;-77
2023/10/03 09:09:19;;;;;;;4.35;3.95;;;26.30;69.70;;;;;;927087;149;27485;-77
2023/10/03 09:11:45;;;;;;;6.05;4.58;;;26.40;69.50;;;;;;945523;146;27372;-76
2023/10/03 09:14:21;;;;;;;7.05;4.47;;;26.40;68.80;;;;;;929764;149;27442;-76
2023/10/03 09:16:59;;;;;;;5.87;4.55;;;26.50;68.40;;;;;;929998;149;27441;-76
2023/10/03 09:19:19;;;;;;;7.15;4.05;;;26.50;68.40;;;;;;944304;146;27425;-76
2023/10/03 09:21:40;;;;;;;6.50;4.37;;;26.50;68.20;;;;;;929870;148;27311;-76
2023/10/03 09:24:11;;;;;;;5.80;4.30;;;26.50;68.10;;;;;;951480;146;27292;-76
2023/10/03 09:26:54;;;;;;;6.22;4.15;;;26.50;67.90;;;;;;928050;150;27389;-76
2023/10/03 09:29:30;;;;;;;6.60;4.10;;;26.50;67.60;;;;;;942106;146;27340;-76
2023/10/03 09:32:12;;;;;;;6.62;4.35;;;26.50;67.50;;;;;;923978;149;27593;-76
2023/10/03 09:34:34;;;;;;;4.00;3.60;;;26.60;67.60;;;;;;928152;149;27349;-76
2023/10/03 09:37:03;;;;;;;6.45;4.40;;;26.60;67.60;;;;;;929322;150;27352;-76
2023/10/03 09:39:30;;;;;;;5.92;4.10;;;26.60;67.30;;;;;;950940;146;27373;-76
2023/10/03 09:41:57;;;;;;;9.83;4.42;;;26.70;67.30;;;;;;942114;148;27359;-76
2023/10/03 09:44:29;;;;;;;4.72;3.92;;;26.70;67.30;;;;;;941501;148;27375;-76
2023/10/03 09:46:53;;;;;;;5.35;4.25;;;26.80;67.30;;;;;;940621;148;27345;-76
2023/10/03 09:49:16;;;;;;;4.22;3.80;;;26.80;67.00;;;;;;930631;149;27489;-76
2023/10/03 09:51:53;;;;;;;5.92;3.98;;;26.90;66.80;;;;;;943450;146;27701;-76
2023/10/03 09:54:20;;;;;;;4.30;3.90;;;27.00;66.60;;;;;;926378;149;27439;-76
2023/10/03 09:56:44;;;;;;;4.90;3.80;;;27.00;66.40;;;;;;944566;146;27356;-76
2023/10/03 09:59:08;;;;;;;4.78;3.60;;;27.10;66.10;;;;;;925972;149;27351;-76
2023/10/03 10:01:35;;;;;;;5.97;4.42;;;27.20;66.00;;;;;;944045;146;27429;-76
2023/10/03 10:04:02;;;;;;;5.45;4.33;;;27.20;65.60;;;;;;927310;149;27303;-76
2023/10/03 10:06:37;;;;;;;5.30;4.03;;;27.30;65.30;;;;;;927027;149;27370;-76
2023/10/03 10:09:13;;;;;;;5.37;3.83;;;27.30;65.20;;;;;;944450;146;27481;-76
2023/10/03 10:11:33;;;;;;;5.20;3.50;;;27.30;64.60;;;;;;929438;150;27430;-76
2023/10/03 10:14:11;;;;;;;4.50;3.75;;;27.30;64.60;;;;;;948420;147;27352;-76
2023/10/03 10:17:04;;;;;;;5.12;4.17;;;27.30;64.30;;;;;;926569;149;27454;-76
2023/10/03 10:20:09;;;;;;;4.33;3.90;;;27.30;64.40;;;;;;919274;150;28364;-76
2023/10/03 10:23:01;;;;;;;4.12;3.72;;;27.30;64.60;;;;;;943416;146;27341;-76
2023/10/03 10:25:26;;;;;;;6.92;3.65;;;27.30;64.70;;;;;;928213;149;27362;-76
2023/10/03 10:28:08;;;;;;;5.42;4.28;;;27.30;64.70;;;;;;944368;146;27373;-76
2023/10/03 10:30:34;;;;;;;6.30;4.17;;;27.30;64.60;;;;;;925920;149;27717;-76
2023/10/03 10:33:20;;;;;;;4.42;3.80;;;27.40;64.60;;;;;;940003;148;27357;-76
2023/10/03 10:35:59;;;;;;;4.60;3.87;;;27.40;64.60;;;;;;940782;148;27357;-76
2023/10/03 10:38:32;;;;;;;10.18;4.67;;;27.50;64.40;;;;;;941254;148;27345;-76
2023/10/03 10:41:26;;;;;;;5.60;4.10;;;27.60;64.40;;;;;;942228;148;27363;-76
2023/10/03 10:44:05;;;;;;;4.08;3.60;;;27.70;64.20;;;;;;941396;148;27390;-76
2023/10/03 10:46:30;;;;;;;4.55;3.70;;;27.80;64.00;;;;;;940689;148;27491;-76
2023/10/03 10:48:57;;;;;;;6.15;4.00;;;27.90;63.90;;;;;;941189;148;27941;-76
2023/10/03 10:51:25;;;;;;;5.55;4.00;;;28.00;63.50;;;;;;933325;149;27351;-76
2023/10/03 10:53:51;;;;;;;4.00;3.60;;;28.10;62.80;;;;;;943686;148;27459;-76
2023/10/03 10:56:17;;;;;;;6.25;4.08;;;28.10;62.60;;;;;;934315;149;27477;-76
2023/10/03 10:58:53;;;;;;;4.92;4.20;;;28.20;62.50;;;;;;942362;146;27444;-76
2023/10/03 11:01:16;;;;;;;4.00;3.60;;;28.20;62.50;;;;;;942853;146;27332;-76
2023/10/03 11:03:43;;;;;;;4.20;3.80;;;28.30;62.60;;;;;;943669;146;27452;-76
2023/10/03 11:06:15;;;;;;;4.83;4.22;;;28.20;62.20;;;;;;924936;149;27452;-76
2023/10/03 11:08:50;;;;;;;4.65;4.25;;;28.30;62.50;;;;;;943115;146;27809;-76
2023/10/03 11:11:17;;;;;;;5.97;3.87;;;28.30;62.10;;;;;;926683;149;27372;-76
2023/10/03 11:13:47;;;;;;;7.28;4.20;;;28.30;61.90;;;;;;929854;149;27279;-76
2023/10/03 11:16:23;;;;;;;4.08;3.67;;;28.40;61.60;;;;;;929623;149;28325;-76
2023/10/03 11:18:49;;;;;;;5.22;4.00;;;28.40;61.70;;;;;;927526;149;27409;-76
2023/10/03 11:21:16;;;;;;;4.15;3.58;;;28.40;61.40;;;;;;928256;149;27396;-76
2023/10/03 11:23:42;;;;;;;4.45;3.77;;;28.40;61.00;;;;;;945852;146;27384;-77
2023/10/03 11:26:09;;;;;;;4.08;3.70;;;28.50;60.80;;;;;;929032;149;27455;-76
2023/10/03 11:28:35;;;;;;;4.55;3.52;;;28.40;60.80;;;;;;933232;149;27464;-76
2023/10/03 11:31:02;;;;;;;6.42;3.80;;;28.40;60.80;;;;;;943229;146;27668;-76
2023/10/03 11:33:29;;;;;;;5.70;3.60;;;28.40;60.70;;;;;;929777;149;27330;-76
2023/10/03 11:35:55;;;;;;;5.28;4.12;;;28.40;60.50;;;;;;927849;150;27338;-76
2023/10/03 11:38:22;;;;;;;4.67;3.90;;;28.40;60.70;;;;;;928442;150;27419;-75
2023/10/03 11:40:49;;;;;;;4.62;3.85;;;28.40;60.80;;;;;;927288;150;27378;-77
2023/10/03 11:43:15;;;;;;;4.97;4.47;;;28.30;60.70;;;;;;943902;146;27420;-77
2023/10/03 11:45:46;;;;;;;5.03;4.05;;;28.30;60.60;;;;;;927929;149;27422;-74
2023/10/03 11:48:17;;;;;;;4.47;3.90;;;28.30;60.40;;;;;;929387;149;27337;-75
2023/10/03 11:50:41;;;;;;;4.17;3.50;;;28.30;60.40;;;;;;927728;149;27754;-77
2023/10/03 11:53:08;;;;;;;6.00;3.75;;;28.20;60.20;;;;;;944469;146;27341;-77
2023/10/03 11:55:36;;;;;;;4.65;3.72;;;28.20;60.10;;;;;;929870;149;27426;-76
2023/10/03 11:58:01;;;;;;;4.78;3.98;;;28.10;60.00;;;;;;965118;145;27498;-74
2023/10/03 12:00:28;;;;;;;4.42;3.70;;;28.00;60.00;;;;;;962687;145;27232;-75
2023/10/03 12:02:53;;;;;;;5.65;3.87;;;28.00;60.00;;;;;;945702;148;27464;-75
2023/10/03 12:05:21;;;;;;;6.22;4.25;;;27.90;60.00;;;;;;965231;145;27337;-73
2023/10/03 12:07:47;;;;;;;6.00;4.37;;;27.80;60.00;;;;;;963314;145;27298;-75
2023/10/03 12:10:13;;;;;;;5.78;3.92;;;27.70;60.10;;;;;;963436;145;27519;-74
2023/10/03 12:12:40;;;;;;;5.12;4.00;;;27.70;60.30;;;;;;962308;145;27343;-74
2023/10/03 12:15:16;;;;;;;5.25;4.33;;;27.60;60.20;;;;;;955893;147;27329;-74
2023/10/03 12:17:33;;;;;;;5.67;3.45;;;27.60;60.30;;;;;;960729;145;27362;-77
2023/10/03 12:20:00;;;;;;;9.95;4.17;;;27.60;60.60;;;;;;944325;148;27352;-74
2023/10/03 12:22:26;;;;;;;6.83;3.90;;;27.60;60.80;;;;;;942384;148;27455;-77
2023/10/03 12:24:53;;;;;;;4.40;4.00;;;27.60;60.80;;;;;;962838;145;27350;-74
2023/10/03 12:27:19;;;;;;;6.15;3.98;;;27.60;60.70;;;;;;945720;148;27696;-75
2023/10/03 12:29:46;;;;;;;4.70;3.77;;;27.60;60.70;;;;;;962227;145;27449;-74
2023/10/03 12:32:13;;;;;;;4.67;3.80;;;27.60;60.50;;;;;;964087;145;27348;-74
2023/10/03 12:34:39;;;;;;;4.67;3.83;;;27.50;60.40;;;;;;945953;148;27421;-77
2023/10/03 12:37:11;;;;;;;6.70;3.60;;;27.50;60.50;;;;;;965108;145;27336;-74
2023/10/03 12:39:35;;;;;;;4.90;3.80;;;27.50;60.60;;;;;;963528;145;27415;-73
2023/10/03 12:41:59;;;;;;;3.95;3.45;;;27.40;60.60;;;;;;947029;147;27390;-77
2023/10/03 12:44:26;;;;;;;4.70;4.17;;;27.40;60.70;;;;;;948510;147;28103;-75
2023/10/03 12:46:52;;;;;;;4.75;3.90;;;27.40;60.70;;;;;;964882;145;27294;-76
2023/10/03 12:49:20;;;;;;;4.85;3.70;;;27.40;60.70;;;;;;964487;145;27260;-76